createdAt,value
2019-05-21T00:00:39.263Z,99503.42
2019-05-21T00:01:43.725Z,99501.05
2019-05-21T00:02:48.798Z,99497.77
2019-05-21T00:03:53.237Z,99499.73
2019-05-21T00:04:58.240Z,99499.36
2019-05-21T00:06:02.794Z,99503.16
2019-05-21T00:07:08.927Z,99501.47
2019-05-21T00:08:13.366Z,99504.24
2019-05-21T00:09:18.342Z,99502.01
2019-05-21T00:10:22.870Z,99500.83
2019-05-21T00:11:27.855Z,99506.65
2019-05-21T00:12:32.295Z,99495.89
2019-05-21T00:13:38.895Z,99504.20
2019-05-21T00:14:43.631Z,99500.14
2019-05-21T00:15:48.614Z,99498.90
2019-05-21T00:16:53.045Z,99494.94
2019-05-21T00:17:58.056Z,99496.17
2019-05-21T00:19:02.796Z,99496.58
2019-05-21T00:20:08.126Z,99495.50
2019-05-21T00:21:12.550Z,99497.70
2019-05-21T00:22:17.843Z,99495.30
2019-05-21T00:23:22.690Z,99507.02
2019-05-21T00:24:27.870Z,99503.60
2019-05-21T00:25:32.409Z,99504.92
2019-05-21T00:26:37.458Z,99502.04
2019-05-21T00:27:41.977Z,99499.48
2019-05-21T00:29:22.965Z,99496.15
2019-05-21T00:31:03.982Z,99497.98
2019-05-21T00:32:44.973Z,99496.42
2019-05-21T00:34:26.104Z,99498.36
2019-05-21T00:36:07.572Z,99497.50
2019-05-21T00:37:48.723Z,99493.08
2019-05-21T00:39:29.984Z,99500.03
2019-05-21T00:41:12.753Z,99500.03
2019-05-21T00:42:30.184Z,99498.17
2019-05-21T00:43:43.544Z,99500.57
2019-05-21T00:44:48.522Z,99498.52
2019-05-21T00:45:53.275Z,99499.68
2019-05-21T00:46:58.555Z,99501.41
2019-05-21T00:48:05.692Z,99505.73
2019-05-21T00:49:09.704Z,99507.30
2019-05-21T00:50:14.478Z,99502.08
2019-05-21T00:51:19.470Z,99506.55
2019-05-21T00:52:24.931Z,99508.92
2019-05-21T00:53:30.002Z,99503.80
2019-05-21T00:54:34.493Z,99509.70
2019-05-21T00:55:40.442Z,99508.66
2019-05-21T00:56:44.861Z,99511.38
2019-05-21T00:57:49.906Z,99512.70
2019-05-21T00:58:54.353Z,99512.65
2019-05-21T00:59:59.329Z,99518.84
2019-05-21T01:01:03.825Z,99517.60
2019-05-21T01:02:08.803Z,99515.42
2019-05-21T01:03:13.253Z,99519.14
2019-05-21T01:04:18.357Z,99518.19
2019-05-21T01:05:23.257Z,99515.84
2019-05-21T01:06:28.620Z,99525.09
2019-05-21T01:07:34.445Z,99519.64
2019-05-21T01:08:39.546Z,99523.28
2019-05-21T01:09:44.304Z,99524.59
2019-05-21T01:10:49.287Z,99523.61
2019-05-21T01:11:53.846Z,99526.78
2019-05-21T01:12:58.826Z,99521.50
2019-05-21T01:14:03.431Z,99524.14
2019-05-21T01:15:08.639Z,99521.87
2019-05-21T01:16:13.068Z,99519.13
2019-05-21T01:17:18.057Z,99520.84
2019-05-21T01:18:22.494Z,99517.67
2019-05-21T01:19:27.477Z,99513.71
2019-05-21T01:20:31.899Z,99514.58
2019-05-21T01:21:36.941Z,99511.86
2019-05-21T01:22:41.381Z,99511.98
2019-05-21T01:23:46.434Z,99510.38
2019-05-21T01:24:51.148Z,99514.05
2019-05-21T01:25:56.132Z,99512.69
2019-05-21T01:27:00.550Z,99511.57
2019-05-21T01:28:05.632Z,99514.80
2019-05-21T01:29:11.188Z,99512.23
2019-05-21T01:30:16.773Z,99515.16
2019-05-21T01:31:21.218Z,99511.13
2019-05-21T01:32:26.184Z,99510.21
2019-05-21T01:33:30.626Z,99504.15
2019-05-21T01:34:35.864Z,99512.16
2019-05-21T01:35:40.568Z,99509.76
2019-05-21T01:36:45.557Z,99506.13
2019-05-21T01:37:49.986Z,99508.69
2019-05-21T01:38:55.434Z,99511.28
2019-05-21T01:39:59.904Z,99508.77
2019-05-21T01:41:05.276Z,99509.73
2019-05-21T01:42:09.703Z,99504.41
2019-05-21T01:43:14.681Z,99505.77
2019-05-21T01:44:19.129Z,99502.34
2019-05-21T01:45:25.203Z,99503.75
2019-05-21T01:46:29.634Z,99507.17
2019-05-21T01:47:34.682Z,99503.75
2019-05-21T01:48:39.132Z,99505.47
2019-05-21T01:49:44.110Z,99509.97
2019-05-21T01:50:48.879Z,99509.76
2019-05-21T01:51:54.043Z,99505.55
2019-05-21T01:52:58.538Z,99508.97
2019-05-21T01:54:03.542Z,99508.97
2019-05-21T01:55:08.225Z,99507.86
2019-05-21T01:56:13.741Z,99512.98
2019-05-21T01:57:19.524Z,99508.77
2019-05-21T01:58:24.629Z,99513.39
2019-05-21T01:59:29.105Z,99512.47
2019-05-21T02:00:34.165Z,99510.04
2019-05-21T02:01:38.597Z,99510.57
2019-05-21T02:02:43.568Z,99511.23
2019-05-21T02:03:48.019Z,99510.45
2019-05-21T02:04:53.084Z,99511.56
2019-05-21T02:05:57.573Z,99503.49
2019-05-21T02:07:02.550Z,99505.75
2019-05-21T02:08:07.043Z,99506.87
2019-05-21T02:09:12.048Z,99500.52
2019-05-21T02:10:16.553Z,99505.47
2019-05-21T02:11:21.628Z,99503.77
2019-05-21T02:12:26.789Z,99505.42
2019-05-21T02:13:31.848Z,99508.11
2019-05-21T02:14:36.299Z,99510.75
2019-05-21T02:15:41.286Z,99509.12
2019-05-21T02:16:45.736Z,99513.09
2019-05-21T02:17:50.737Z,99514.45
2019-05-21T02:18:55.183Z,99517.24
2019-05-21T02:20:00.195Z,99520.00
2019-05-21T02:21:06.120Z,99517.36
2019-05-21T02:22:11.105Z,99518.16
2019-05-21T02:23:15.536Z,99518.69
2019-05-21T02:24:20.831Z,99518.34
2019-05-21T02:25:25.265Z,99515.00
2019-05-21T02:26:30.251Z,99526.88
2019-05-21T02:27:34.674Z,99519.30
2019-05-21T02:28:40.736Z,99526.08
2019-05-21T02:29:45.517Z,99523.03
2019-05-21T02:30:50.510Z,99522.17
2019-05-21T02:31:56.014Z,99523.03
2019-05-21T02:33:01.005Z,99520.81
2019-05-21T02:34:05.499Z,99526.46
2019-05-21T02:35:10.648Z,99517.77
2019-05-21T02:36:15.389Z,99526.20
2019-05-21T02:37:20.384Z,99526.73
2019-05-21T02:38:24.802Z,99530.16
2019-05-21T02:39:29.824Z,99527.07
2019-05-21T02:40:34.309Z,99523.98
2019-05-21T02:41:39.296Z,99525.00
2019-05-21T02:42:43.726Z,99530.08
2019-05-21T02:43:48.704Z,99540.70
2019-05-21T02:44:54.589Z,99539.66
2019-05-21T02:45:59.784Z,99540.91
2019-05-21T02:47:04.270Z,99539.33
2019-05-21T02:48:09.398Z,99542.75
2019-05-21T02:49:13.895Z,99545.01
2019-05-21T02:50:19.204Z,99538.59
2019-05-21T02:51:23.627Z,99544.14
2019-05-21T02:52:28.611Z,99519.03
2019-05-21T02:53:34.483Z,99543.20
2019-05-21T02:54:41.723Z,99545.47
2019-05-21T02:55:45.963Z,99543.69
2019-05-21T02:56:50.927Z,99545.58
2019-05-21T02:57:55.349Z,99545.50
2019-05-21T02:59:00.624Z,99555.60
2019-05-21T03:00:07.948Z,99549.80
2019-05-21T03:01:17.496Z,99555.14
2019-05-21T03:02:25.505Z,99556.54
2019-05-21T03:03:32.491Z,99554.81
2019-05-21T03:04:36.937Z,99557.11
2019-05-21T03:05:41.989Z,99559.30
2019-05-21T03:06:46.477Z,99566.30
2019-05-21T03:07:51.856Z,99557.45
2019-05-21T03:08:56.311Z,99566.11
2019-05-21T03:10:01.743Z,99574.39
2019-05-21T03:11:06.633Z,99569.23
2019-05-21T03:12:11.594Z,99574.39
2019-05-21T03:13:16.038Z,99574.32
2019-05-21T03:14:21.161Z,99577.55
2019-05-21T03:15:25.757Z,99578.50
2019-05-21T03:16:31.030Z,99570.39
2019-05-21T03:17:35.544Z,99577.48
2019-05-21T03:18:40.807Z,99577.11
2019-05-21T03:19:45.315Z,99575.38
2019-05-21T03:20:50.318Z,99576.31
2019-05-21T03:21:54.746Z,99579.74
2019-05-21T03:22:59.800Z,99578.02
2019-05-21T03:24:04.390Z,99577.38
2019-05-21T03:25:09.911Z,99575.64
2019-05-21T03:26:14.339Z,99579.48
2019-05-21T03:27:19.312Z,99582.83
2019-05-21T03:28:24.013Z,99567.39
2019-05-21T03:29:29.139Z,99571.95
2019-05-21T03:30:33.595Z,99566.83
2019-05-21T03:31:38.622Z,99574.06
2019-05-21T03:32:43.031Z,99570.48
2019-05-21T03:33:48.321Z,99566.75
2019-05-21T03:34:52.791Z,99575.64
2019-05-21T03:35:58.361Z,99575.41
2019-05-21T03:37:03.014Z,99576.84
2019-05-21T03:38:09.369Z,99572.77
2019-05-21T03:39:13.875Z,99578.16
2019-05-21T03:40:18.943Z,99576.91
2019-05-21T03:41:23.498Z,99571.23
2019-05-21T03:42:28.819Z,99569.53
2019-05-21T03:43:33.397Z,99566.30
2019-05-21T03:44:56.316Z,99568.73
2019-05-21T03:45:45.066Z,99570.70
2019-05-21T03:46:50.501Z,99569.45
2019-05-21T03:47:55.230Z,99569.34
2019-05-21T03:49:00.754Z,99572.36
2019-05-21T03:50:06.514Z,99568.01
2019-05-21T03:51:11.825Z,99570.92
2019-05-21T03:52:16.767Z,99573.30
2019-05-21T03:53:22.086Z,99572.77
2019-05-21T03:54:26.702Z,99568.88
2019-05-21T03:55:32.231Z,99573.80
2019-05-21T03:56:36.969Z,99573.16
2019-05-21T03:57:42.265Z,99573.42
2019-05-21T03:58:47.304Z,99570.39
2019-05-21T03:59:52.641Z,99568.55
2019-05-21T04:00:57.417Z,99568.13
2019-05-21T04:02:02.448Z,99571.70
2019-05-21T04:03:07.254Z,99572.23
2019-05-21T04:04:12.231Z,99571.75
2019-05-21T04:05:25.167Z,99575.45
2019-05-21T04:06:30.375Z,99578.95
2019-05-21T04:07:34.907Z,99584.13
2019-05-21T04:08:39.905Z,99582.80
2019-05-21T04:09:44.614Z,99585.97
2019-05-21T04:10:49.628Z,99586.09
2019-05-21T04:11:54.081Z,99586.72
2019-05-21T04:13:08.751Z,99586.27
2019-05-21T04:14:15.242Z,99586.62
2019-05-21T04:15:23.991Z,99591.75
2019-05-21T04:16:42.400Z,99592.84
2019-05-21T04:17:54.130Z,99591.97
2019-05-21T04:19:03.176Z,99592.22
2019-05-21T04:20:08.451Z,99591.42
2019-05-21T04:21:13.760Z,99596.12
2019-05-21T04:22:18.614Z,99595.69
2019-05-21T04:23:23.598Z,99595.44
2019-05-21T04:24:28.030Z,99596.14
2019-05-21T04:25:33.282Z,99595.56
2019-05-21T04:26:38.171Z,99594.65
2019-05-21T04:27:43.152Z,99600.09
2019-05-21T04:28:47.576Z,99604.64
2019-05-21T04:29:52.568Z,99599.77
2019-05-21T04:30:57.067Z,99600.27
2019-05-21T04:32:01.997Z,99598.58
2019-05-21T04:33:06.510Z,99600.02
2019-05-21T04:34:11.748Z,99596.14
2019-05-21T04:35:16.814Z,99587.48
2019-05-21T04:36:22.875Z,99586.41
2019-05-21T04:37:27.699Z,99585.66
2019-05-21T04:38:42.731Z,99584.17
2019-05-21T04:39:48.226Z,99590.20
2019-05-21T04:40:53.205Z,99589.78
2019-05-21T04:41:57.733Z,99587.59
2019-05-21T04:43:02.948Z,99587.83
2019-05-21T04:44:08.426Z,99589.45
2019-05-21T04:45:14.220Z,99584.98
2019-05-21T04:46:19.079Z,99593.16
2019-05-21T04:47:24.470Z,99590.44
2019-05-21T04:48:29.578Z,99582.36
2019-05-21T04:49:34.848Z,99585.29
2019-05-21T04:50:39.292Z,99588.58
2019-05-21T04:51:44.290Z,99587.27
2019-05-21T04:52:48.711Z,99584.22
2019-05-21T04:53:54.024Z,99587.67
2019-05-21T04:54:59.109Z,99588.70
2019-05-21T04:56:06.116Z,99594.11
2019-05-21T04:57:10.566Z,99589.09
2019-05-21T04:58:15.552Z,99591.47
2019-05-21T04:59:20.454Z,99597.00
2019-05-21T05:00:26.895Z,99597.17
2019-05-21T05:01:32.478Z,99597.86
2019-05-21T05:02:37.923Z,99595.64
2019-05-21T05:03:42.353Z,99594.28
2019-05-21T05:04:47.339Z,99598.04
2019-05-21T05:05:51.845Z,99603.73
2019-05-21T05:06:56.899Z,99601.50
2019-05-21T05:08:01.392Z,99602.78
2019-05-21T05:09:07.309Z,99604.66
2019-05-21T05:10:12.140Z,99602.21
2019-05-21T05:11:17.192Z,99601.23
2019-05-21T05:12:22.084Z,99601.63
2019-05-21T05:13:27.047Z,99604.75
2019-05-21T05:14:31.473Z,99601.75
2019-05-21T05:15:36.456Z,99609.58
2019-05-21T05:16:40.942Z,99609.56
2019-05-21T05:17:45.939Z,99612.05
2019-05-21T05:18:50.708Z,99608.91
2019-05-21T05:19:55.694Z,99603.90
2019-05-21T05:21:00.457Z,99605.42
2019-05-21T05:22:05.569Z,99604.05
2019-05-21T05:23:10.097Z,99599.31
2019-05-21T05:24:15.075Z,99604.14
2019-05-21T05:25:20.144Z,99603.75
2019-05-21T05:26:25.192Z,99604.09
2019-05-21T05:27:29.636Z,99604.63
2019-05-21T05:28:34.610Z,99609.89
2019-05-21T05:29:39.037Z,99614.05
2019-05-21T05:30:44.014Z,99607.35
2019-05-21T05:31:48.437Z,99605.59
2019-05-21T05:32:54.502Z,99606.27
2019-05-21T05:34:02.159Z,99608.17
2019-05-21T05:35:08.500Z,99608.88
2019-05-21T05:36:13.150Z,99612.92
2019-05-21T05:37:18.153Z,99612.08
2019-05-21T05:38:22.591Z,99611.40
2019-05-21T05:39:27.895Z,99607.56
2019-05-21T05:40:32.532Z,99608.48
2019-05-21T05:41:37.582Z,99613.56
2019-05-21T05:42:42.300Z,99613.02
2019-05-21T05:43:47.300Z,99615.45
2019-05-21T05:44:51.954Z,99608.61
2019-05-21T05:45:56.942Z,99609.54
2019-05-21T05:47:01.757Z,99599.66
2019-05-21T05:48:06.817Z,99605.59
2019-05-21T05:49:21.944Z,99607.93
2019-05-21T05:51:56.035Z,99599.64
2019-05-21T05:53:00.924Z,99607.45
2019-05-21T05:54:07.696Z,99603.34
2019-05-21T05:55:12.804Z,99601.23
2019-05-21T05:56:17.481Z,99597.00
2019-05-21T05:57:22.333Z,99597.79
2019-05-21T05:58:28.298Z,99602.80
2019-05-21T05:59:33.090Z,99606.24
2019-05-21T06:00:38.129Z,99602.20
2019-05-21T06:01:42.924Z,99606.09
2019-05-21T06:02:47.623Z,99601.92
2019-05-21T06:03:52.477Z,99605.84
2019-05-21T06:04:57.261Z,99601.12
2019-05-21T06:06:02.404Z,99604.49
2019-05-21T06:07:07.152Z,99609.66
2019-05-21T06:08:12.352Z,99605.27
2019-05-21T06:09:16.965Z,99605.74
2019-05-21T06:10:22.189Z,99605.53
2019-05-21T06:11:26.868Z,99611.27
2019-05-21T06:12:31.668Z,99610.03
2019-05-21T06:13:36.290Z,99610.24
2019-05-21T06:14:41.390Z,99604.70
2019-05-21T06:15:46.052Z,99607.86
2019-05-21T06:16:51.282Z,99607.14
2019-05-21T06:17:55.917Z,99605.73
2019-05-21T06:19:00.710Z,99604.65
2019-05-21T06:20:06.957Z,99599.79
2019-05-21T06:21:11.744Z,99599.99
2019-05-21T06:22:16.485Z,99601.06
2019-05-21T06:23:22.188Z,99600.61
2019-05-21T06:24:27.737Z,99598.31
2019-05-21T06:25:32.587Z,99594.27
2019-05-21T06:26:37.255Z,99589.63
2019-05-21T06:27:42.132Z,99599.08
2019-05-21T06:28:46.758Z,99596.69
2019-05-21T06:29:51.687Z,99597.85
2019-05-21T06:30:56.632Z,99598.89
2019-05-21T06:32:01.448Z,99596.68
2019-05-21T06:33:06.142Z,99597.70
2019-05-21T06:34:11.016Z,99596.91
2019-05-21T06:35:16.530Z,99606.34
2019-05-21T06:36:21.877Z,99606.70
2019-05-21T06:37:26.477Z,99597.23
2019-05-21T06:38:31.301Z,99606.92
2019-05-21T06:39:35.909Z,99609.36
2019-05-21T06:40:40.719Z,99603.98
2019-05-21T06:41:45.307Z,99602.66
2019-05-21T06:42:50.099Z,99609.27
2019-05-21T06:43:54.722Z,99612.22
2019-05-21T06:44:59.515Z,99607.40
2019-05-21T06:46:04.260Z,99612.02
2019-05-21T06:47:09.060Z,99610.06
2019-05-21T06:48:13.742Z,99608.73
2019-05-21T06:49:18.770Z,99614.50
2019-05-21T06:50:23.382Z,99615.72
2019-05-21T06:51:28.183Z,99609.08
2019-05-21T06:52:32.790Z,99610.73
2019-05-21T06:53:37.674Z,99602.63
2019-05-21T06:54:42.281Z,99606.69
2019-05-21T06:55:47.079Z,99608.50
2019-05-21T06:56:51.750Z,99607.34
2019-05-21T06:57:56.548Z,99609.06
2019-05-21T06:59:01.537Z,99611.80
2019-05-21T07:00:09.550Z,99616.65
2019-05-21T07:01:14.146Z,99615.58
2019-05-21T07:02:19.572Z,99618.63
2019-05-21T07:03:24.199Z,99618.38
2019-05-21T07:04:29.077Z,99620.91
2019-05-21T07:05:33.685Z,99619.20
2019-05-21T07:06:38.471Z,99619.77
2019-05-21T07:07:43.142Z,99623.21
2019-05-21T07:08:48.424Z,99622.80
2019-05-21T07:09:53.094Z,99618.70
2019-05-21T07:10:57.905Z,99618.04
2019-05-21T07:12:02.502Z,99621.64
2019-05-21T07:13:07.298Z,99621.39
2019-05-21T07:14:11.950Z,99614.03
2019-05-21T07:15:16.981Z,99620.13
2019-05-21T07:16:21.584Z,99618.66
2019-05-21T07:17:26.648Z,99619.27
2019-05-21T07:18:31.263Z,99621.71
2019-05-21T07:19:36.252Z,99621.11
2019-05-21T07:20:40.918Z,99619.31
2019-05-21T07:21:45.797Z,99621.28
2019-05-21T07:22:50.661Z,99624.30
2019-05-21T07:23:55.470Z,99627.17
2019-05-21T07:25:00.069Z,99623.38
2019-05-21T07:26:14.708Z,99632.78
2019-05-21T07:27:19.312Z,99627.16
2019-05-21T07:28:24.182Z,99634.45
2019-05-21T07:29:28.797Z,99636.08
2019-05-21T07:30:33.655Z,99633.61
2019-05-21T07:31:38.647Z,99643.53
2019-05-21T07:32:43.542Z,99640.66
2019-05-21T07:33:48.246Z,99641.81
2019-05-21T07:34:53.168Z,99641.47
2019-05-21T07:35:57.743Z,99637.96
2019-05-21T07:37:02.538Z,99641.47
2019-05-21T07:38:08.591Z,99643.42
2019-05-21T07:39:13.453Z,99644.13
2019-05-21T07:40:18.799Z,99642.05
2019-05-21T07:41:23.639Z,99647.23
2019-05-21T07:42:28.308Z,99636.31
2019-05-21T07:43:33.360Z,99638.33
2019-05-21T07:44:37.965Z,99632.47
2019-05-21T07:45:42.824Z,99635.37
2019-05-21T07:46:47.570Z,99641.02
2019-05-21T07:47:52.664Z,99639.04
2019-05-21T07:48:57.265Z,99637.16
2019-05-21T07:50:02.152Z,99640.97
2019-05-21T07:51:08.244Z,99638.06
2019-05-21T07:52:13.040Z,99641.63
2019-05-21T07:53:17.648Z,99640.36
2019-05-21T07:54:22.453Z,99638.83
2019-05-21T07:55:27.123Z,99641.39
2019-05-21T07:56:31.938Z,99644.45
2019-05-21T07:57:36.612Z,99643.75
2019-05-21T07:58:41.404Z,99637.23
2019-05-21T07:59:46.161Z,99644.70
2019-05-21T08:00:51.027Z,99648.27
2019-05-21T08:01:55.722Z,99647.67
2019-05-21T08:03:00.526Z,99644.92
2019-05-21T08:04:06.303Z,99641.98
2019-05-21T08:05:11.398Z,99647.61
2019-05-21T08:06:16.090Z,99644.67
2019-05-21T08:07:20.883Z,99643.86
2019-05-21T08:08:26.022Z,99643.53
2019-05-21T08:09:30.969Z,99643.67
2019-05-21T08:10:36.028Z,99647.94
2019-05-21T08:11:40.957Z,99647.08
2019-05-21T08:12:45.569Z,99642.00
2019-05-21T08:13:50.362Z,99644.66
2019-05-21T08:14:54.977Z,99642.42
2019-05-21T08:15:59.839Z,99640.00
2019-05-21T08:17:04.510Z,99645.39
2019-05-21T08:18:09.673Z,99644.72
2019-05-21T08:19:14.352Z,99646.86
2019-05-21T08:20:20.225Z,99643.53
2019-05-21T08:21:24.847Z,99651.62
2019-05-21T08:22:29.962Z,99649.95
2019-05-21T08:23:34.569Z,99651.20
2019-05-21T08:24:39.400Z,99651.59
2019-05-21T08:25:44.128Z,99649.95
2019-05-21T08:26:49.370Z,99650.77
2019-05-21T08:27:54.021Z,99652.90
2019-05-21T08:28:58.808Z,99650.47
2019-05-21T08:30:03.877Z,99650.99
2019-05-21T08:31:09.057Z,99649.66
2019-05-21T08:32:13.724Z,99648.44
2019-05-21T08:33:19.134Z,99655.24
2019-05-21T08:34:24.381Z,99657.39
2019-05-21T08:35:29.157Z,99657.45
2019-05-21T08:36:34.056Z,99661.81
2019-05-21T08:37:38.910Z,99665.14
2019-05-21T08:38:43.495Z,99656.80
2019-05-21T08:39:48.294Z,99660.88
2019-05-21T08:40:52.889Z,99661.14
2019-05-21T08:41:57.678Z,99661.16
2019-05-21T08:43:02.360Z,99652.83
2019-05-21T08:44:07.201Z,99659.55
2019-05-21T08:45:12.553Z,99662.73
2019-05-21T08:46:17.764Z,99659.25
2019-05-21T08:47:22.502Z,99654.54
2019-05-21T08:48:27.578Z,99651.24
2019-05-21T08:49:32.315Z,99654.77
2019-05-21T08:50:37.120Z,99658.55
2019-05-21T08:51:41.791Z,99658.92
2019-05-21T08:52:47.712Z,99657.98
2019-05-21T08:53:52.647Z,99658.45
2019-05-21T08:54:57.427Z,99657.06
2019-05-21T08:56:02.159Z,99658.31
2019-05-21T08:57:07.366Z,99657.28
2019-05-21T08:58:12.493Z,99655.20
2019-05-21T08:59:17.417Z,99657.69
2019-05-21T09:00:25.765Z,99666.11
2019-05-21T09:01:30.625Z,99659.84
2019-05-21T09:02:35.226Z,99664.05
2019-05-21T09:03:40.077Z,99661.52
2019-05-21T09:04:46.787Z,99662.24
2019-05-21T09:05:51.799Z,99661.76
2019-05-21T09:06:56.397Z,99660.80
2019-05-21T09:08:01.178Z,99664.23
2019-05-21T09:09:06.719Z,99667.08
2019-05-21T09:10:11.989Z,99668.80
2019-05-21T09:11:16.662Z,99666.27
2019-05-21T09:12:21.444Z,99663.09
2019-05-21T09:13:26.104Z,99666.80
2019-05-21T09:14:31.046Z,99662.67
2019-05-21T09:15:35.655Z,99669.65
2019-05-21T09:16:41.406Z,99664.12
2019-05-21T09:17:46.000Z,99668.63
2019-05-21T09:18:51.757Z,99676.36
2019-05-21T09:19:56.872Z,99671.13
2019-05-21T09:21:01.674Z,99672.40
2019-05-21T09:22:06.411Z,99670.75
2019-05-21T09:23:11.191Z,99669.97
2019-05-21T09:24:15.786Z,99668.48
2019-05-21T09:25:20.975Z,99663.39
2019-05-21T09:26:25.569Z,99665.01
2019-05-21T09:27:30.343Z,99666.56
2019-05-21T09:28:35.015Z,99666.69
2019-05-21T09:29:40.168Z,99667.70
2019-05-21T09:30:45.346Z,99666.52
2019-05-21T09:31:50.272Z,99667.93
2019-05-21T09:32:54.938Z,99667.70
2019-05-21T09:33:59.782Z,99671.36
2019-05-21T09:35:06.606Z,99665.12
2019-05-21T09:36:11.474Z,99660.83
2019-05-21T09:37:19.592Z,99667.95
2019-05-21T09:38:22.827Z,99663.72
2019-05-21T09:39:27.423Z,99674.01
2019-05-21T09:40:32.850Z,99662.88
2019-05-21T09:41:37.583Z,99667.06
2019-05-21T09:42:45.219Z,99669.78
2019-05-21T09:43:48.795Z,99661.11
2019-05-21T09:44:53.710Z,99664.23
2019-05-21T09:45:58.398Z,99660.32
2019-05-21T09:47:03.193Z,99665.20
2019-05-21T09:48:07.901Z,99660.67
2019-05-21T09:49:13.732Z,99669.48
2019-05-21T09:50:19.235Z,99670.86
2019-05-21T09:51:24.099Z,99670.64
2019-05-21T09:52:28.766Z,99665.85
2019-05-21T09:53:33.971Z,99674.01
2019-05-21T09:54:38.662Z,99666.77
2019-05-21T09:55:43.467Z,99673.97
2019-05-21T09:56:48.192Z,99677.95
2019-05-21T09:58:12.805Z,99678.00
2019-05-21T09:59:34.358Z,99677.53
2019-05-21T10:00:40.583Z,99673.14
2019-05-21T10:01:48.212Z,99674.75
2019-05-21T10:02:52.983Z,99674.53
2019-05-21T10:03:59.720Z,99675.11
2019-05-21T10:05:06.373Z,99672.17
2019-05-21T10:06:11.499Z,99668.13
2019-05-21T10:07:16.044Z,99670.45
2019-05-21T10:08:21.016Z,99675.55
2019-05-21T10:09:25.460Z,99675.97
2019-05-21T10:10:30.733Z,99672.51
2019-05-21T10:11:35.147Z,99674.81
2019-05-21T10:12:40.185Z,99676.66
2019-05-21T10:13:44.666Z,99676.72
2019-05-21T10:14:49.635Z,99681.23
2019-05-21T10:15:54.121Z,99680.83
2019-05-21T10:17:00.152Z,99679.97
2019-05-21T10:18:04.949Z,99679.48
2019-05-21T10:19:09.989Z,99683.18
2019-05-21T10:20:14.536Z,99685.66
2019-05-21T10:21:19.790Z,99686.52
2019-05-21T10:22:24.432Z,99686.52
2019-05-21T10:23:29.465Z,99690.58
2019-05-21T10:24:34.389Z,99682.30
2019-05-21T10:25:39.514Z,99683.34
2019-05-21T10:26:44.338Z,99676.27
2019-05-21T10:27:49.303Z,99675.97
2019-05-21T10:28:53.716Z,99678.51
2019-05-21T10:29:58.675Z,99675.81
2019-05-21T10:31:03.160Z,99681.70
2019-05-21T10:32:08.217Z,99684.33
2019-05-21T10:33:12.622Z,99688.45
2019-05-21T10:34:17.668Z,99689.19
2019-05-21T10:35:22.585Z,99685.36
2019-05-21T10:36:27.618Z,99686.98
2019-05-21T10:37:32.123Z,99691.34
2019-05-21T10:38:37.160Z,99695.83
2019-05-21T10:39:42.786Z,99689.45
2019-05-21T10:40:47.822Z,99690.80
2019-05-21T10:41:52.303Z,99686.14
2019-05-21T10:42:57.291Z,99680.30
2019-05-21T10:44:02.071Z,99690.89
2019-05-21T10:45:07.876Z,99686.19
2019-05-21T10:46:12.289Z,99688.43
2019-05-21T10:47:17.274Z,99691.09
2019-05-21T10:48:21.684Z,99691.13
2019-05-21T10:49:26.720Z,99689.84
2019-05-21T10:50:31.132Z,99691.12
2019-05-21T10:51:36.172Z,99692.39
2019-05-21T10:52:40.696Z,99698.52
2019-05-21T10:53:45.896Z,99694.80
2019-05-21T10:54:50.294Z,99699.70
2019-05-21T10:55:55.408Z,99691.88
2019-05-21T10:56:59.953Z,99698.58
2019-05-21T10:58:05.080Z,99695.17
2019-05-21T10:59:09.801Z,99701.33
2019-05-21T11:00:23.023Z,99701.98
2019-05-21T11:01:44.222Z,99704.94
2019-05-21T11:02:50.538Z,99696.72
2019-05-21T11:03:56.652Z,99700.58
2019-05-21T11:05:11.723Z,99699.96
2019-05-21T11:06:17.294Z,99701.77
2019-05-21T11:07:23.047Z,99699.22
2019-05-21T11:08:28.128Z,99701.95
2019-05-21T11:09:32.795Z,99699.80
2019-05-21T11:10:38.192Z,99697.17
2019-05-21T11:11:42.607Z,99691.58
2019-05-21T11:12:47.680Z,99699.06
2019-05-21T11:13:52.104Z,99702.17
2019-05-21T11:14:57.468Z,99706.08
2019-05-21T11:16:01.976Z,99701.55
2019-05-21T11:17:08.058Z,99699.16
2019-05-21T11:18:12.631Z,99696.23
2019-05-21T11:19:17.592Z,99691.83
2019-05-21T11:20:22.156Z,99698.55
2019-05-21T11:21:27.130Z,99702.16
2019-05-21T11:22:31.528Z,99703.21
2019-05-21T11:23:36.527Z,99698.44
2019-05-21T11:24:40.936Z,99698.08
2019-05-21T11:25:46.378Z,99703.14
2019-05-21T11:26:50.868Z,99700.94
2019-05-21T11:27:55.932Z,99702.08
2019-05-21T11:29:00.341Z,99701.00
2019-05-21T11:30:07.817Z,99700.82
2019-05-21T11:31:12.299Z,99704.56
2019-05-21T11:32:17.356Z,99701.59
2019-05-21T11:33:21.775Z,99702.69
2019-05-21T11:34:26.748Z,99697.78
2019-05-21T11:35:31.395Z,99703.09
2019-05-21T11:36:36.361Z,99695.81
2019-05-21T11:37:40.841Z,99690.17
2019-05-21T11:38:45.825Z,99689.28
2019-05-21T11:39:50.306Z,99689.00
2019-05-21T11:40:55.302Z,99689.86
2019-05-21T11:41:59.707Z,99690.48
2019-05-21T11:43:04.780Z,99683.06
2019-05-21T11:44:09.335Z,99694.34
2019-05-21T11:45:29.429Z,99694.94
2019-05-21T11:46:20.746Z,99695.17
2019-05-21T11:47:25.718Z,99688.52
2019-05-21T11:48:30.215Z,99688.16
2019-05-21T11:49:35.355Z,99698.77
2019-05-21T11:50:40.204Z,99697.36
2019-05-21T11:51:45.255Z,99696.67
2019-05-21T11:52:49.840Z,99691.70
2019-05-21T11:53:55.877Z,99694.90
2019-05-21T11:55:00.315Z,99698.93
2019-05-21T11:56:05.473Z,99696.77
2019-05-21T11:57:09.949Z,99691.27
2019-05-21T11:58:14.918Z,99691.99
2019-05-21T11:59:19.352Z,99695.20
2019-05-21T12:00:26.219Z,99692.23
2019-05-21T12:01:31.168Z,99701.63
2019-05-21T12:02:36.222Z,99697.52
2019-05-21T12:03:40.647Z,99704.56
2019-05-21T12:04:45.607Z,99693.50
2019-05-21T12:05:50.466Z,99697.91
2019-05-21T12:06:56.100Z,99697.06
2019-05-21T12:08:00.516Z,99692.64
2019-05-21T12:09:08.224Z,99698.11
2019-05-21T12:10:13.316Z,99698.27
2019-05-21T12:11:18.287Z,99694.72
2019-05-21T12:12:22.739Z,99689.96
2019-05-21T12:13:27.659Z,99695.87
2019-05-21T12:14:32.145Z,99693.05
2019-05-21T12:15:37.194Z,99693.39
2019-05-21T12:16:41.623Z,99686.30
2019-05-21T12:17:46.578Z,99685.95
2019-05-21T12:18:51.063Z,99688.48
2019-05-21T12:19:56.056Z,99684.62
2019-05-21T12:21:00.471Z,99688.69
2019-05-21T12:22:05.844Z,99688.86
2019-05-21T12:23:10.253Z,99688.00
2019-05-21T12:24:15.244Z,99687.02
2019-05-21T12:25:20.082Z,99688.20
2019-05-21T12:26:25.060Z,99693.35
2019-05-21T12:27:29.549Z,99691.47
2019-05-21T12:28:34.838Z,99688.57
2019-05-21T12:29:39.271Z,99698.27
2019-05-21T12:30:44.231Z,99692.52
2019-05-21T12:31:48.711Z,99692.22
2019-05-21T12:32:53.710Z,99688.20
2019-05-21T12:33:58.194Z,99686.38
2019-05-21T12:35:03.231Z,99683.53
2019-05-21T12:36:08.277Z,99686.75
2019-05-21T12:37:13.407Z,99689.05
2019-05-21T12:38:18.165Z,99681.15
2019-05-21T12:39:23.109Z,99676.89
2019-05-21T12:40:27.955Z,99671.52
2019-05-21T12:41:33.002Z,99677.26
2019-05-21T12:42:37.403Z,99677.53
2019-05-21T12:43:42.384Z,99682.46
2019-05-21T12:44:46.813Z,99684.91
2019-05-21T12:45:51.911Z,99682.86
2019-05-21T12:46:56.490Z,99678.32
2019-05-21T12:48:01.768Z,99685.19
2019-05-21T12:49:06.617Z,99682.94
2019-05-21T12:50:12.600Z,99689.45
2019-05-21T12:51:17.010Z,99691.63
2019-05-21T12:52:22.003Z,99694.34